createdAt,value
2023-05-02T00:00:05.903Z,11.60
2023-05-02T00:03:04.304Z,12.70
2023-05-02T00:05:33.598Z,10.50
2023-05-02T00:08:01.050Z,11.30
2023-05-02T00:10:27.461Z,14.50
2023-05-02T00:12:55.918Z,13.80
2023-05-02T00:15:22.561Z,13.00
2023-05-02T00:17:56.455Z,14.80
2023-05-02T00:20:26.880Z,15.70
2023-05-02T00:22:56.569Z,10.70
2023-05-02T00:25:23.170Z,13.70
2023-05-02T00:27:52.340Z,10.20
2023-05-02T00:30:20.529Z,11.40
2023-05-02T00:32:47.103Z,11.90
2023-05-02T00:35:14.011Z,10.00
2023-05-02T00:37:46.572Z,12.60
2023-05-02T00:40:13.459Z,11.80
2023-05-02T00:42:43.031Z,16.10
2023-05-02T00:45:09.805Z,15.70
2023-05-02T00:47:41.411Z,14.50
2023-05-02T00:50:11.833Z,10.60
2023-05-02T00:52:43.037Z,13.50
2023-05-02T00:55:09.616Z,15.30
2023-05-02T00:57:38.747Z,13.20
2023-05-02T01:00:08.573Z,14.10
2023-05-02T01:02:45.631Z,13.80
2023-05-02T01:05:33.454Z,16.00
2023-05-02T01:08:15.123Z,18.30
2023-05-02T01:10:58.024Z,20.20
2023-05-02T01:13:29.023Z,22.20
2023-05-02T01:16:01.783Z,20.20
2023-05-02T01:18:40.592Z,22.20
2023-05-02T01:21:12.150Z,18.30
2023-05-02T01:23:52.967Z,17.00
2023-05-02T01:26:32.352Z,17.20
2023-05-02T01:29:03.058Z,17.10
2023-05-02T01:31:36.537Z,17.50
2023-05-02T01:34:11.482Z,17.80
2023-05-02T01:36:50.965Z,20.00
2023-05-02T01:39:26.292Z,19.30
2023-05-02T01:41:57.838Z,18.90
2023-05-02T01:44:35.036Z,17.80
2023-05-02T01:47:12.192Z,18.50
2023-05-02T01:49:44.921Z,17.90
2023-05-02T01:52:13.537Z,20.00
2023-05-02T01:54:52.498Z,18.60
2023-05-02T01:57:19.541Z,17.80
2023-05-02T01:59:52.422Z,20.10
2023-05-02T02:02:26.636Z,22.20
2023-05-02T02:05:01.201Z,18.90
2023-05-02T02:07:33.862Z,16.70
2023-05-02T02:10:12.386Z,15.10
2023-05-02T02:12:48.651Z,20.30
2023-05-02T02:15:25.434Z,19.30
2023-05-02T02:18:00.622Z,17.30
2023-05-02T02:20:33.422Z,15.50
2023-05-02T02:23:08.941Z,18.10
2023-05-02T02:25:37.524Z,16.50
2023-05-02T02:28:10.442Z,14.60
2023-05-02T02:30:47.914Z,15.00
2023-05-02T02:33:14.514Z,16.80
2023-05-02T02:35:49.457Z,15.70
2023-05-02T02:38:45.655Z,14.20
2023-05-02T02:41:18.553Z,14.40
2023-05-02T02:44:23.951Z,13.00
2023-05-02T02:47:08.372Z,15.00
